Weather at UC Davis Medical Center Tower II Heliport

Public forecast

Using degrees Fahrenheit for public forecast. Weather courtesy of forecast.io.

Closest aviation weather report (METAR) to UC Davis Medical Center Tower II Heliport

Closest report is Sacramento Executive Airport, 3.1 nm (5.7 km) SW. Retrieved 2021/01/27 10:18 UTC (0 seconds ago):

KSAC 271018Z AUTO 15025G41KT 5SM -RA BR SCT018 BKN042 OVC065 05/03 A2971 RMK AO2 PK WND 14050/0958 P0006 T00500028

Closest aviation forecast (TAF) to UC Davis Medical Center Tower II Heliport

Closest forecast is Sacramento Executive Airport, 3.1 nm (5.7 km) SW. Retrieved 2021/01/27 06:36 UTC (3 hours ago):

TAF KSAC 270534Z 2706/2806 16025G40KT 6SM -RA BKN028 OVC035 FM270900 15035G50KT 1SM +RA BKN007 OVC010 FM271500 14016G23KT P6SM OVC050